Time;durP1;ratioP1;P1;durP2;ratioP2;P2;SDS_P1;SDS_P2;PMS_P1;PMS_P2;Temp;Humidity;BMP_temperature;BMP_pressure;BME280_temperature;BME280_humidity;BME280_pressure;Samples;Min_cycle;Max_cycle;Signal;HPM_P1;HPM_P2
2023/03/19 00:01:12;;;;;;;;;1.00;1.00;;;;;;;;6336684;22;45284;-80
2023/03/19 00:03:37;;;;;;;;;0.67;0.67;;;;;;;;6335564;22;45284;-80
2023/03/19 00:06:02;;;;;;;;;0.67;0.00;;;;;;;;6336731;22;45251;-80
2023/03/19 00:08:28;;;;;;;;;1.00;0.00;;;;;;;;6335829;22;45339;-79
2023/03/19 00:10:53;;;;;;;;;2.00;0.00;;;;;;;;6334306;22;45959;-80
2023/03/19 00:13:18;;;;;;;;;0.00;0.00;;;;;;;;6334470;22;45274;-80
2023/03/19 00:15:44;;;;;;;;;0.25;0.25;;;;;;;;6336211;22;45325;-80
2023/03/19 00:18:09;;;;;;;;;0.50;0.50;;;;;;;;6335592;22;47176;-80
2023/03/19 00:20:35;;;;;;;;;2.00;2.00;;;;;;;;6335897;22;45373;-82
2023/03/19 00:23:00;;;;;;;;;1.00;1.00;;;;;;;;6336032;22;45251;-82
2023/03/19 00:25:26;;;;;;;;;1.00;1.00;;;;;;;;6334516;22;45275;-82
2023/03/19 00:27:53;;;;;;;;;2.75;0.75;;;;;;;;6334360;22;47873;-81
2023/03/19 00:30:18;;;;;;;;;0.25;0.25;;;;;;;;6334367;22;45290;-81
2023/03/19 00:32:43;;;;;;;;;1.00;1.00;;;;;;;;6336019;22;45239;-80
2023/03/19 00:35:09;;;;;;;;;1.00;1.00;;;;;;;;6334154;22;45495;-80
2023/03/19 00:37:35;;;;;;;;;2.00;1.00;;;;;;;;6335783;22;45264;-80
2023/03/19 00:40:00;;;;;;;;;1.00;1.00;;;;;;;;6335920;22;45297;-79
2023/03/19 00:42:25;;;;;;;;;1.00;0.25;;;;;;;;6336164;22;45153;-80
2023/03/19 00:44:51;;;;;;;;;1.00;1.00;;;;;;;;6335647;22;45405;-81
2023/03/19 00:47:16;;;;;;;;;2.75;1.50;;;;;;;;6335727;22;45285;-80
2023/03/19 00:49:41;;;;;;;;;3.00;1.00;;;;;;;;6334181;22;45199;-80
2023/03/19 00:52:07;;;;;;;;;2.00;1.00;;;;;;;;6335591;22;45232;-80
2023/03/19 00:54:32;;;;;;;;;2.00;1.00;;;;;;;;6336247;22;45252;-79
2023/03/19 00:56:57;;;;;;;;;3.00;1.67;;;;;;;;6335988;22;45965;-80
2023/03/19 00:59:24;;;;;;;;;7.00;2.00;;;;;;;;6336067;22;45244;-80
2023/03/19 01:01:50;;;;;;;;;1.00;1.00;;;;;;;;6335460;22;45280;-80
2023/03/19 01:04:16;;;;;;;;;2.00;1.00;;;;;;;;6336377;22;45280;-80
2023/03/19 01:06:41;;;;;;;;;3.25;0.50;;;;;;;;6335291;22;46276;-80
2023/03/19 01:09:06;;;;;;;;;2.25;1.25;;;;;;;;6335305;22;45406;-80
2023/03/19 01:11:32;;;;;;;;;2.00;2.00;;;;;;;;6336045;22;45313;-79
2023/03/19 01:13:57;;;;;;;;;2.00;1.33;;;;;;;;6336193;22;45414;-79
2023/03/19 01:16:22;;;;;;;;;1.00;1.00;;;;;;;;6333334;22;47518;-80
2023/03/19 01:18:47;;;;;;;;;1.00;1.00;;;;;;;;6335890;22;45367;-81
2023/03/19 01:21:13;;;;;;;;;2.33;1.00;;;;;;;;6334196;22;45346;-80
2023/03/19 01:23:38;;;;;;;;;2.00;2.00;;;;;;;;6335435;22;45596;-80
2023/03/19 01:26:04;;;;;;;;;1.00;1.00;;;;;;;;6335744;22;45331;-80
2023/03/19 01:28:29;;;;;;;;;1.00;1.00;;;;;;;;6336001;22;45290;-80
2023/03/19 01:30:58;;;;;;;;;2.33;2.00;;;;;;;;6333688;22;45308;-79
2023/03/19 01:33:24;;;;;;;;;2.00;2.00;;;;;;;;6332031;22;45368;-79
2023/03/19 01:35:49;;;;;;;;;1.50;1.50;;;;;;;;6335237;22;46589;-80
2023/03/19 01:38:16;;;;;;;;;5.50;2.75;;;;;;;;6335360;22;45355;-80
2023/03/19 01:40:48;;;;;;;;;2.75;2.75;;;;;;;;6335527;22;45237;-79
2023/03/19 01:43:18;;;;;;;;;1.00;1.00;;;;;;;;6333387;22;45428;-80
2023/03/19 01:45:44;;;;;;;;;2.50;2.50;;;;;;;;6335310;22;47053;-80
2023/03/19 01:48:22;;;;;;;;;3.00;2.75;;;;;;;;6335773;22;45318;-81
2023/03/19 01:50:49;;;;;;;;;2.00;1.50;;;;;;;;6335923;22;45278;-80
2023/03/19 01:53:16;;;;;;;;;3.00;2.00;;;;;;;;6335084;22;45380;-80
2023/03/19 01:55:41;;;;;;;;;2.00;2.00;;;;;;;;6333617;22;47257;-81
2023/03/19 01:58:06;;;;;;;;;2.00;1.50;;;;;;;;6336102;22;45269;-81
2023/03/19 02:00:33;;;;;;;;;4.00;2.00;;;;;;;;6336890;22;45256;-80
2023/03/19 02:03:00;;;;;;;;;1.75;1.75;;;;;;;;6336813;22;45362;-81
2023/03/19 02:05:25;;;;;;;;;2.00;2.00;;;;;;;;6336567;22;46547;-81
2023/03/19 02:07:56;;;;;;;;;3.75;3.00;;;;;;;;6335105;22;45277;-80
2023/03/19 02:10:22;;;;;;;;;3.00;3.00;;;;;;;;6337348;22;45250;-81
2023/03/19 02:12:47;;;;;;;;;2.25;2.00;;;;;;;;6334260;22;45202;-81
2023/03/19 02:15:13;;;;;;;;;4.50;1.75;;;;;;;;6336411;22;46235;-81
2023/03/19 02:17:39;;;;;;;;;2.50;2.50;;;;;;;;6337044;22;45237;-80
2023/03/19 02:20:07;;;;;;;;;2.25;2.25;;;;;;;;6337212;22;45266;-81
2023/03/19 02:22:35;;;;;;;;;2.50;2.00;;;;;;;;6337096;22;45349;-81
2023/03/19 02:25:16;;;;;;;;;5.50;2.00;;;;;;;;6336812;22;46440;-80
2023/03/19 02:27:41;;;;;;;;;3.00;3.00;;;;;;;;6336114;22;45363;-80
2023/03/19 02:30:21;;;;;;;;;3.00;3.00;;;;;;;;6337134;22;45249;-80
2023/03/19 02:32:46;;;;;;;;;4.75;3.00;;;;;;;;6336910;22;45278;-80
2023/03/19 02:35:12;;;;;;;;;3.33;2.67;;;;;;;;6336981;22;46419;-80
2023/03/19 02:37:37;;;;;;;;;3.00;3.00;;;;;;;;6336250;22;45228;-80
2023/03/19 02:40:12;;;;;;;;;6.33;3.33;;;;;;;;6337216;22;45219;-80
2023/03/19 02:42:37;;;;;;;;;2.75;2.75;;;;;;;;6336590;22;45283;-81
2023/03/19 02:45:03;;;;;;;;;1.33;1.33;;;;;;;;6336943;22;45612;-80
2023/03/19 02:47:28;;;;;;;;;3.75;3.00;;;;;;;;6336708;22;45339;-80
2023/03/19 02:49:53;;;;;;;;;1.00;1.00;;;;;;;;6332673;22;45267;-81
2023/03/19 02:52:19;;;;;;;;;1.75;1.75;;;;;;;;6336419;22;45533;-81
2023/03/19 02:54:45;;;;;;;;;2.00;2.00;;;;;;;;6336779;22;46228;-81
2023/03/19 02:57:10;;;;;;;;;2.00;1.00;;;;;;;;6336062;22;45765;-81
2023/03/19 02:59:36;;;;;;;;;3.00;3.00;;;;;;;;6336896;22;45270;-81
2023/03/19 03:02:01;;;;;;;;;4.00;2.50;;;;;;;;6334718;22;45212;-81
2023/03/19 03:04:26;;;;;;;;;1.75;1.75;;;;;;;;6336245;22;46864;-81
2023/03/19 03:06:51;;;;;;;;;3.00;2.33;;;;;;;;6336579;22;45280;-81
2023/03/19 03:09:17;;;;;;;;;3.00;2.00;;;;;;;;6336246;22;45244;-81
2023/03/19 03:11:42;;;;;;;;;2.00;2.00;;;;;;;;6331797;22;45439;-81
2023/03/19 03:14:07;;;;;;;;;3.67;3.00;;;;;;;;6335984;22;46312;-80
2023/03/19 03:16:32;;;;;;;;;2.00;2.00;;;;;;;;6336293;22;45285;-80
2023/03/19 03:18:58;;;;;;;;;6.67;2.00;;;;;;;;6334932;22;45242;-80
2023/03/19 03:21:24;;;;;;;;;3.25;2.75;;;;;;;;6336529;22;45577;-80
2023/03/19 03:23:50;;;;;;;;;3.00;3.00;;;;;;;;6336156;22;46254;-80
2023/03/19 03:26:15;;;;;;;;;3.75;3.00;;;;;;;;6336228;22;45288;-81
2023/03/19 03:28:40;;;;;;;;;2.00;2.00;;;;;;;;6337052;22;45212;-81
2023/03/19 03:31:05;;;;;;;;;2.00;2.00;;;;;;;;6336182;22;45500;-81
2023/03/19 03:33:31;;;;;;;;;2.25;2.25;;;;;;;;6335954;22;47257;-81
2023/03/19 03:35:57;;;;;;;;;3.75;3.00;;;;;;;;6334638;22;45924;-81
2023/03/19 03:38:22;;;;;;;;;3.00;3.00;;;;;;;;6334823;22;45311;-81
2023/03/19 03:40:51;;;;;;;;;2.00;2.00;;;;;;;;6335819;22;45616;-81
2023/03/19 03:43:16;;;;;;;;;6.00;3.25;;;;;;;;6336607;22;45210;-81
2023/03/19 03:45:42;;;;;;;;;3.00;3.00;;;;;;;;6334190;22;45282;-81
2023/03/19 03:48:07;;;;;;;;;4.00;3.00;;;;;;;;6334453;22;45274;-81
2023/03/19 03:50:33;;;;;;;;;6.00;3.00;;;;;;;;6336125;22;45576;-80
2023/03/19 03:52:58;;;;;;;;;4.00;4.00;;;;;;;;6336174;22;45270;-80
2023/03/19 03:55:23;;;;;;;;;4.00;3.00;;;;;;;;6335556;22;45256;-81
2023/03/19 03:57:48;;;;;;;;;1.67;1.00;;;;;;;;6336119;22;45364;-80
2023/03/19 04:00:14;;;;;;;;;3.50;2.75;;;;;;;;6336200;22;45291;-80
2023/03/19 04:02:39;;;;;;;;;4.00;3.50;;;;;;;;6334426;22;47965;-80
2023/03/19 04:05:05;;;;;;;;;7.00;3.33;;;;;;;;6336766;22;45224;-81
2023/03/19 04:07:30;;;;;;;;;6.50;4.00;;;;;;;;6336233;22;45311;-80
2023/03/19 04:09:57;;;;;;;;;6.50;3.00;;;;;;;;6336218;22;45363;-80
2023/03/19 04:12:22;;;;;;;;;9.00;2.00;;;;;;;;6335922;22;45415;-80
2023/03/19 04:14:48;;;;;;;;;6.00;3.25;;;;;;;;6335979;22;45610;-80
2023/03/19 04:17:13;;;;;;;;;5.33;3.00;;;;;;;;6336260;22;45444;-81
2023/03/19 04:19:38;;;;;;;;;6.67;3.00;;;;;;;;6334403;22;45270;-81
2023/03/19 04:22:03;;;;;;;;;7.00;6.00;;;;;;;;6336515;22;46431;-79
2023/03/19 04:24:29;;;;;;;;;7.00;3.75;;;;;;;;6335400;22;45291;-82
2023/03/19 04:26:54;;;;;;;;;8.25;3.25;;;;;;;;6336229;22;45298;-82
2023/03/19 04:29:20;;;;;;;;;10.00;4.33;;;;;;;;6336682;22;45257;-82
2023/03/19 04:31:45;;;;;;;;;6.25;3.00;;;;;;;;6335692;22;47052;-82
2023/03/19 04:34:11;;;;;;;;;5.00;3.50;;;;;;;;6336324;22;45343;-81
2023/03/19 04:36:37;;;;;;;;;5.75;3.25;;;;;;;;6336061;22;45289;-81
2023/03/19 04:39:02;;;;;;;;;6.50;4.75;;;;;;;;6336000;22;45440;-82
2023/03/19 04:41:28;;;;;;;;;7.33;3.67;;;;;;;;6334043;22;47168;-81
2023/03/19 04:43:54;;;;;;;;;9.00;6.00;;;;;;;;6335816;22;45662;-81
2023/03/19 04:46:19;;;;;;;;;5.00;4.25;;;;;;;;6335879;22;45321;-81
2023/03/19 04:48:45;;;;;;;;;3.67;3.00;;;;;;;;6334501;22;45218;-81
2023/03/19 04:51:10;;;;;;;;;7.00;3.50;;;;;;;;6336198;22;45884;-81
2023/03/19 04:53:36;;;;;;;;;6.00;2.67;;;;;;;;6335456;22;45327;-81
2023/03/19 04:56:02;;;;;;;;;7.00;4.75;;;;;;;;6336030;22;45224;-81
2023/03/19 04:58:27;;;;;;;;;4.67;4.67;;;;;;;;6335732;22;45450;-80
2023/03/19 05:00:52;;;;;;;;;5.75;5.50;;;;;;;;6335642;22;46199;-80
2023/03/19 05:03:17;;;;;;;;;5.33;3.00;;;;;;;;6335595;22;45295;-80
2023/03/19 05:05:43;;;;;;;;;10.00;5.67;;;;;;;;6335764;22;45459;-80
2023/03/19 05:08:08;;;;;;;;;7.67;6.33;;;;;;;;6333486;22;45329;-80
2023/03/19 05:10:34;;;;;;;;;5.75;5.00;;;;;;;;6331609;22;45368;-81
2023/03/19 05:12:59;;;;;;;;;8.00;6.25;;;;;;;;6335285;22;45650;-80
2023/03/19 05:15:24;;;;;;;;;7.67;6.00;;;;;;;;6336226;22;45265;-81
2023/03/19 05:17:51;;;;;;;;;8.67;6.00;;;;;;;;6334072;22;45443;-80
2023/03/19 05:20:16;;;;;;;;;7.50;5.75;;;;;;;;6333848;22;48087;-80
2023/03/19 05:22:42;;;;;;;;;7.00;6.75;;;;;;;;6334752;22;45231;-80
2023/03/19 05:25:07;;;;;;;;;10.50;6.25;;;;;;;;6335705;22;45158;-80
2023/03/19 05:27:32;;;;;;;;;6.00;6.00;;;;;;;;6336043;22;45368;-80
2023/03/19 05:29:59;;;;;;;;;9.33;7.00;;;;;;;;6335795;22;46371;-80
2023/03/19 05:32:24;;;;;;;;;9.75;6.00;;;;;;;;6336412;22;45243;-80
2023/03/19 05:34:49;;;;;;;;;9.00;6.00;;;;;;;;6337174;22;45304;-80
2023/03/19 05:37:15;;;;;;;;;7.00;6.00;;;;;;;;6337106;22;45300;-80
2023/03/19 05:39:41;;;;;;;;;7.00;5.00;;;;;;;;6336641;22;46256;-80
2023/03/19 05:42:06;;;;;;;;;11.00;6.33;;;;;;;;6335032;22;45336;-81
2023/03/19 05:44:32;;;;;;;;;2.67;2.67;;;;;;;;6337008;22;45247;-80
2023/03/19 05:46:57;;;;;;;;;7.50;6.00;;;;;;;;6336802;22;45304;-80
2023/03/19 05:49:22;;;;;;;;;8.33;7.33;;;;;;;;6337091;22;45411;-80
2023/03/19 05:51:47;;;;;;;;;9.33;5.67;;;;;;;;6336575;22;45280;-80
2023/03/19 05:54:12;;;;;;;;;8.33;6.00;;;;;;;;6337225;22;45347;-80
2023/03/19 05:56:37;;;;;;;;;8.67;6.67;;;;;;;;6337307;22;45406;-81
2023/03/19 05:59:03;;;;;;;;;11.00;8.00;;;;;;;;6336526;22;45434;-80
2023/03/19 06:01:29;;;;;;;;;10.00;8.00;;;;;;;;6337127;22;45654;-80
2023/03/19 06:03:54;;;;;;;;;10.25;7.75;;;;;;;;6337252;22;45319;-80
2023/03/19 06:06:19;;;;;;;;;11.25;6.50;;;;;;;;6336465;22;45350;-80
2023/03/19 06:08:45;;;;;;;;;12.00;8.00;;;;;;;;6337098;22;45302;-80
2023/03/19 06:11:10;;;;;;;;;10.00;4.25;;;;;;;;6336774;22;45417;-80
2023/03/19 06:13:36;;;;;;;;;8.00;7.00;;;;;;;;6335048;22;45297;-81
2023/03/19 06:16:01;;;;;;;;;11.33;7.00;;;;;;;;6336590;22;45304;-81
2023/03/19 06:18:26;;;;;;;;;12.33;6.33;;;;;;;;6334737;22;48284;-80
2023/03/19 06:20:51;;;;;;;;;7.00;4.33;;;;;;;;6336014;22;45276;-81
2023/03/19 06:23:17;;;;;;;;;6.25;6.00;;;;;;;;6336652;22;45202;-81
2023/03/19 06:25:42;;;;;;;;;9.75;5.50;;;;;;;;6335089;22;45335;-81
2023/03/19 06:28:07;;;;;;;;;7.00;7.00;;;;;;;;6336266;22;46600;-81
2023/03/19 06:30:32;;;;;;;;;8.00;6.67;;;;;;;;6337077;22;45247;-82
2023/03/19 06:32:58;;;;;;;;;9.50;7.00;;;;;;;;6334839;22;45360;-81
2023/03/19 06:35:23;;;;;;;;;11.33;7.00;;;;;;;;6336614;22;45352;-81
2023/03/19 06:37:48;;;;;;;;;15.00;8.00;;;;;;;;6336272;22;46057;-81
2023/03/19 06:40:14;;;;;;;;;7.00;6.75;;;;;;;;6336974;22;45177;-81
2023/03/19 06:42:39;;;;;;;;;8.75;7.00;;;;;;;;6336338;22;45181;-81
2023/03/19 06:45:05;;;;;;;;;11.00;6.33;;;;;;;;6337242;22;45344;-81
2023/03/19 06:47:30;;;;;;;;;7.00;6.00;;;;;;;;6336226;22;46257;-79
2023/03/19 06:49:56;;;;;;;;;9.67;7.67;;;;;;;;6332130;22;45285;-80
2023/03/19 06:52:21;;;;;;;;;15.50;7.00;;;;;;;;6334720;22;45422;-81
2023/03/19 06:54:47;;;;;;;;;13.75;7.00;;;;;;;;6336440;22;45293;-80
2023/03/19 06:57:12;;;;;;;;;7.67;3.67;;;;;;;;6336325;22;46251;-81
2023/03/19 06:59:37;;;;;;;;;13.00;8.00;;;;;;;;6336078;22;45237;-81
2023/03/19 07:02:02;;;;;;;;;7.00;6.00;;;;;;;;6336047;22;45311;-80
2023/03/19 07:04:28;;;;;;;;;5.00;4.25;;;;;;;;6337099;22;45166;-81
2023/03/19 07:06:53;;;;;;;;;8.50;6.00;;;;;;;;6334716;22;47221;-81
2023/03/19 07:09:18;;;;;;;;;7.00;6.67;;;;;;;;6336435;22;45314;-81
2023/03/19 07:11:44;;;;;;;;;6.67;6.67;;;;;;;;6336141;22;45302;-80
2023/03/19 07:14:10;;;;;;;;;8.00;7.25;;;;;;;;6336249;22;45441;-79
2023/03/19 07:16:35;;;;;;;;;6.00;5.00;;;;;;;;6336453;22;45337;-81
2023/03/19 07:19:00;;;;;;;;;8.00;6.00;;;;;;;;6336384;22;45253;-81
2023/03/19 07:21:25;;;;;;;;;6.00;6.00;;;;;;;;6334988;22;45206;-81
2023/03/19 07:23:50;;;;;;;;;4.67;4.00;;;;;;;;6336920;22;45523;-80
2023/03/19 07:26:16;;;;;;;;;7.25;6.50;;;;;;;;6335996;22;47078;-81
2023/03/19 07:28:42;;;;;;;;;6.50;4.50;;;;;;;;6336310;22;45225;-80
2023/03/19 07:31:07;;;;;;;;;7.67;4.33;;;;;;;;6336535;22;45264;-81
2023/03/19 07:33:32;;;;;;;;;9.00;4.00;;;;;;;;6334436;22;45482;-80
2023/03/19 07:35:57;;;;;;;;;8.00;3.33;;;;;;;;6336180;22;47248;-80
2023/03/19 07:38:22;;;;;;;;;3.00;3.00;;;;;;;;6336289;22;45192;-79
2023/03/19 07:40:48;;;;;;;;;8.33;7.00;;;;;;;;6336739;22;45173;-80
2023/03/19 07:43:14;;;;;;;;;10.00;4.25;;;;;;;;6336192;22;45435;-81
2023/03/19 07:45:39;;;;;;;;;7.67;5.00;;;;;;;;6333968;22;48114;-80
2023/03/19 07:48:04;;;;;;;;;6.00;5.67;;;;;;;;6334753;22;45317;-80
2023/03/19 07:50:30;;;;;;;;;6.50;5.50;;;;;;;;6334587;22;45356;-81
2023/03/19 07:52:55;;;;;;;;;5.50;4.25;;;;;;;;6335968;22;45268;-81
2023/03/19 07:55:20;;;;;;;;;11.25;5.50;;;;;;;;6335840;22;46370;-81
2023/03/19 07:57:46;;;;;;;;;6.00;4.75;;;;;;;;6336619;22;45321;-81
2023/03/19 08:00:11;;;;;;;;;6.25;4.50;;;;;;;;6335993;22;45259;-80
2023/03/19 08:02:37;;;;;;;;;6.00;2.00;;;;;;;;6333987;22;45523;-81
2023/03/19 08:05:03;;;;;;;;;3.00;3.00;;;;;;;;6336421;22;46490;-81
2023/03/19 08:07:29;;;;;;;;;7.50;3.00;;;;;;;;6336166;22;45353;-81
2023/03/19 08:09:54;;;;;;;;;4.75;4.25;;;;;;;;6336888;22;45390;-81
2023/03/19 08:12:20;;;;;;;;;5.00;4.25;;;;;;;;6334433;22;45399;-81
2023/03/19 08:14:45;;;;;;;;;6.00;3.50;;;;;;;;6335556;22;46047;-81
2023/03/19 08:17:10;;;;;;;;;6.00;4.00;;;;;;;;6336094;22;45291;-80
2023/03/19 08:19:35;;;;;;;;;4.33;3.00;;;;;;;;6336133;22;45491;-81
2023/03/19 08:22:00;;;;;;;;;4.00;4.00;;;;;;;;6336720;22;45428;-81
2023/03/19 08:24:26;;;;;;;;;6.25;5.00;;;;;;;;6334075;22;48287;-81
2023/03/19 08:26:51;;;;;;;;;4.00;2.00;;;;;;;;6336063;22;45302;-81
2023/03/19 08:29:16;;;;;;;;;5.00;3.33;;;;;;;;6336255;22;45281;-81
2023/03/19 08:31:41;;;;;;;;;4.25;3.75;;;;;;;;6336254;22;45287;-80
2023/03/19 08:34:09;;;;;;;;;8.00;6.00;;;;;;;;6336250;22;45393;-81
2023/03/19 08:36:34;;;;;;;;;7.25;4.00;;;;;;;;6326446;22;45716;-81
2023/03/19 08:38:59;;;;;;;;;7.75;6.75;;;;;;;;6336466;22;45230;-81
2023/03/19 08:41:25;;;;;;;;;8.25;6.50;;;;;;;;6336489;22;45184;-81
2023/03/19 08:43:50;;;;;;;;;9.33;6.00;;;;;;;;6335155;22;45397;-81
2023/03/19 08:46:16;;;;;;;;;8.50;7.25;;;;;;;;6335823;22;45149;-81
2023/03/19 08:48:41;;;;;;;;;6.00;6.00;;;;;;;;6336451;22;45268;-81
2023/03/19 08:51:07;;;;;;;;;7.75;5.00;;;;;;;;6336442;22;45252;-81
2023/03/19 08:53:32;;;;;;;;;4.00;4.00;;;;;;;;6335404;22;46401;-81
2023/03/19 08:56:00;;;;;;;;;9.25;3.00;;;;;;;;6335749;22;45272;-81
2023/03/19 08:58:26;;;;;;;;;3.25;3.00;;;;;;;;6336110;22;45270;-80
2023/03/19 09:00:52;;;;;;;;;6.50;4.50;;;;;;;;6335968;22;45464;-80
2023/03/19 09:03:17;;;;;;;;;2.75;2.00;;;;;;;;6335979;22;45873;-80
2023/03/19 09:05:42;;;;;;;;;4.50;3.00;;;;;;;;6335414;22;45300;-80
2023/03/19 09:08:08;;;;;;;;;7.00;3.67;;;;;;;;6336489;22;45177;-80
2023/03/19 09:10:33;;;;;;;;;6.00;4.00;;;;;;;;6336245;22;45218;-80
2023/03/19 09:12:58;;;;;;;;;3.75;3.50;;;;;;;;6335275;22;46145;-80
2023/03/19 09:15:24;;;;;;;;;8.75;3.50;;;;;;;;6335564;22;45224;-80
2023/03/19 09:17:49;;;;;;;;;4.33;3.00;;;;;;;;6336391;22;45280;-81
2023/03/19 09:20:14;;;;;;;;;7.00;3.67;;;;;;;;6335686;22;45196;-81
2023/03/19 09:22:39;;;;;;;;;7.00;2.67;;;;;;;;6335207;22;45497;-81
2023/03/19 09:25:05;;;;;;;;;3.00;2.75;;;;;;;;6335560;22;45178;-81
2023/03/19 09:27:31;;;;;;;;;5.00;3.00;;;;;;;;6335725;22;45440;-81
2023/03/19 09:29:56;;;;;;;;;3.00;2.75;;;;;;;;6335691;22;45404;-80
2023/03/19 09:32:21;;;;;;;;;6.67;3.00;;;;;;;;6335768;22;45471;-80
2023/03/19 09:34:47;;;;;;;;;6.00;4.00;;;;;;;;6335884;22;45391;-81
2023/03/19 09:37:12;;;;;;;;;8.33;2.67;;;;;;;;6335758;22;45269;-81
2023/03/19 09:39:37;;;;;;;;;4.67;3.00;;;;;;;;6335700;22;45339;-81
2023/03/19 09:42:03;;;;;;;;;6.25;3.00;;;;;;;;6334699;22;47153;-81
2023/03/19 09:44:30;;;;;;;;;4.00;3.75;;;;;;;;6335314;22;45273;-81
2023/03/19 09:47:14;;;;;;;;;66.25;45.75;;;;;;;;6335425;22;45375;-81
2023/03/19 09:49:43;;;;;;;;;119.25;89.25;;;;;;;;6335675;22;45328;-80
2023/03/19 09:52:09;;;;;;;;;65.50;49.00;;;;;;;;6335398;22;46317;-81
2023/03/19 09:54:45;;;;;;;;;6.00;4.00;;;;;;;;6335722;22;45182;-80
2023/03/19 09:57:11;;;;;;;;;2.25;2.00;;;;;;;;6334889;22;45307;-81
2023/03/19 09:59:37;;;;;;;;;6.00;2.50;;;;;;;;6335559;22;45367;-80
2023/03/19 10:02:17;;;;;;;;;3.00;3.00;;;;;;;;6333939;22;46523;-81
2023/03/19 10:04:59;;;;;;;;;3.00;2.00;;;;;;;;6335597;22;45197;-81
2023/03/19 10:07:31;;;;;;;;;5.00;4.00;;;;;;;;6335815;22;45355;-81
2023/03/19 10:10:10;;;;;;;;;6.25;1.75;;;;;;;;6335191;22;45310;-81
2023/03/19 10:12:45;;;;;;;;;4.00;2.50;;;;;;;;6334749;22;45355;-81
2023/03/19 10:15:19;;;;;;;;;4.00;4.00;;;;;;;;6335104;22;45333;-81
2023/03/19 10:18:03;;;;;;;;;5.50;2.25;;;;;;;;6336602;22;45295;-82
2023/03/19 10:20:47;;;;;;;;;4.75;3.50;;;;;;;;6337304;22;45320;-81
2023/03/19 10:23:22;;;;;;;;;5.50;4.00;;;;;;;;6336563;22;46306;-81
2023/03/19 10:25:48;;;;;;;;;3.50;3.50;;;;;;;;6336210;22;45315;-82
2023/03/19 10:28:20;;;;;;;;;5.00;3.00;;;;;;;;6336607;22;45311;-82
2023/03/19 10:30:52;;;;;;;;;7.25;4.00;;;;;;;;6335170;22;45513;-82
2023/03/19 10:33:17;;;;;;;;;8.75;6.00;;;;;;;;6336054;22;46600;-81
2023/03/19 10:35:43;;;;;;;;;9.00;6.00;;;;;;;;6336458;22;45165;-81
2023/03/19 10:38:15;;;;;;;;;6.50;4.50;;;;;;;;6336473;22;45154;-83
2023/03/19 10:40:43;;;;;;;;;11.50;7.00;;;;;;;;6327171;22;45839;-83
2023/03/19 10:43:11;;;;;;;;;6.75;3.75;;;;;;;;6336866;22;46456;-81
2023/03/19 10:45:37;;;;;;;;;9.50;6.00;;;;;;;;6336782;22;45693;-82
2023/03/19 10:48:03;;;;;;;;;12.67;6.67;;;;;;;;6336988;22;45280;-80
2023/03/19 10:50:42;;;;;;;;;4.50;3.00;;;;;;;;6336425;22;45575;-81
2023/03/19 10:53:25;;;;;;;;;5.00;2.00;;;;;;;;6336509;22;45559;-81
2023/03/19 10:55:52;;;;;;;;;2.50;1.00;;;;;;;;6336655;22;45328;-80
2023/03/19 10:58:19;;;;;;;;;1.50;0.50;;;;;;;;6336619;22;45276;-81
2023/03/19 11:00:45;;;;;;;;;1.00;1.00;;;;;;;;6335070;22;45244;-81
2023/03/19 11:03:30;;;;;;;;;3.00;1.00;;;;;;;;6336239;22;47145;-81
2023/03/19 11:06:03;;;;;;;;;1.00;0.00;;;;;;;;6337051;22;45549;-81
2023/03/19 11:08:28;;;;;;;;;1.50;1.00;;;;;;;;6336679;22;45198;-81
2023/03/19 11:10:53;;;;;;;;;2.00;1.33;;;;;;;;6336534;22;45366;-81
2023/03/19 11:13:25;;;;;;;;;1.00;1.00;;;;;;;;6336560;22;46560;-81
2023/03/19 11:15:51;;;;;;;;;1.50;1.00;;;;;;;;6336805;22;45520;-81
2023/03/19 11:18:21;;;;;;;;;1.00;1.00;;;;;;;;6336600;22;45213;-81
2023/03/19 11:20:55;;;;;;;;;2.25;1.25;;;;;;;;6334774;22;45524;-81
2023/03/19 11:23:20;;;;;;;;;3.00;2.00;;;;;;;;6336250;22;46624;-82
2023/03/19 11:25:53;;;;;;;;;3.50;1.50;;;;;;;;6336259;22;45204;-82
2023/03/19 11:28:23;;;;;;;;;4.00;2.25;;;;;;;;6336592;22;45323;-80
2023/03/19 11:31:07;;;;;;;;;2.00;2.00;;;;;;;;6336323;22;45238;-81
2023/03/19 11:33:49;;;;;;;;;1.50;1.00;;;;;;;;6335956;22;46995;-81
2023/03/19 11:36:24;;;;;;;;;1.75;1.75;;;;;;;;6336286;22;45571;-82
2023/03/19 11:38:57;;;;;;;;;3.00;1.00;;;;;;;;6335921;22;45228;-82
2023/03/19 11:41:35;;;;;;;;;2.50;1.50;;;;;;;;6334714;22;45408;-82
2023/03/19 11:44:21;;;;;;;;;1.50;1.00;;;;;;;;6336542;22;45514;-79
2023/03/19 11:46:54;;;;;;;;;1.50;0.00;;;;;;;;6335332;22;45292;-81
2023/03/19 11:49:26;;;;;;;;;1.50;1.00;;;;;;;;6336396;22;45213;-82
2023/03/19 11:51:58;;;;;;;;;0.00;0.00;;;;;;;;6335998;22;45127;-80
2023/03/19 11:54:35;;;;;;;;;1.50;0.00;;;;;;;;6335635;22;46365;-81
2023/03/19 11:57:07;;;;;;;;;1.25;1.25;;;;;;;;6336028;22;45255;-82
2023/03/19 11:59:38;;;;;;;;;2.00;1.00;;;;;;;;6336587;22;45285;-81
2023/03/19 12:02:21;;;;;;;;;0.50;0.50;;;;;;;;6336496;22;45449;-80
2023/03/19 12:05:13;;;;;;;;;1.25;0.50;;;;;;;;6335824;22;45491;-80
2023/03/19 12:07:50;;;;;;;;;2.00;0.75;;;;;;;;6329629;22;45674;-80
2023/03/19 12:10:16;;;;;;;;;0.00;0.00;;;;;;;;6336019;22;45194;-80
2023/03/19 12:12:45;;;;;;;;;0.00;0.00;;;;;;;;6336516;22;45201;-80
2023/03/19 12:15:18;;;;;;;;;2.25;0.00;;;;;;;;6335948;22;46331;-82
2023/03/19 12:18:02;;;;;;;;;1.00;1.00;;;;;;;;6336511;22;45284;-82
2023/03/19 12:20:28;;;;;;;;;1.75;0.50;;;;;;;;6336188;22;45360;-81
2023/03/19 12:22:56;;;;;;;;;2.00;1.00;;;;;;;;6335202;22;45383;-81
2023/03/19 12:25:30;;;;;;;;;0.00;0.00;;;;;;;;6336276;22;46413;-81
2023/03/19 12:28:01;;;;;;;;;2.50;1.00;;;;;;;;6336580;22;45509;-81
2023/03/19 12:30:27;;;;;;;;;1.00;1.00;;;;;;;;6336160;22;45253;-81
2023/03/19 12:33:08;;;;;;;;;0.00;0.00;;;;;;;;6334283;22;45467;-81
2023/03/19 12:35:35;;;;;;;;;1.00;0.00;;;;;;;;6335243;22;47276;-81
2023/03/19 12:38:18;;;;;;;;;0.50;0.50;;;;;;;;6336370;22;45526;-81
2023/03/19 12:40:56;;;;;;;;;1.50;1.00;;;;;;;;6335872;22;45423;-81
2023/03/19 12:43:28;;;;;;;;;0.25;0.25;;;;;;;;6335886;22;45216;-81
2023/03/19 12:45:57;;;;;;;;;0.50;0.00;;;;;;;;6335897;22;46144;-81
2023/03/19 12:48:27;;;;;;;;;0.00;0.00;;;;;;;;6335624;22;45280;-81
2023/03/19 12:50:55;;;;;;;;;0.75;0.75;;;;;;;;6332049;22;45507;-81
2023/03/19 12:53:23;;;;;;;;;2.50;2.50;;;;;;;;6334130;22;45411;-81
2023/03/19 12:55:52;;;;;;;;;1.75;1.75;;;;;;;;6335760;22;47053;-81
2023/03/19 12:58:21;;;;;;;;;0.00;0.00;;;;;;;;6336140;22;45356;-81
2023/03/19 13:00:49;;;;;;;;;1.50;1.00;;;;;;;;6334422;22;45365;-81
2023/03/19 13:03:14;;;;;;;;;0.25;0.25;;;;;;;;6336455;22;45478;-80
2023/03/19 13:05:56;;;;;;;;;2.00;0.00;;;;;;;;6333663;22;48050;-81
2023/03/19 13:08:26;;;;;;;;;2.00;0.00;;;;;;;;6335568;22;45524;-81
2023/03/19 13:10:51;;;;;;;;;2.00;0.75;;;;;;;;6335792;22;45299;-80
2023/03/19 13:13:16;;;;;;;;;1.25;0.25;;;;;;;;6335614;22;45260;-81
2023/03/19 13:15:45;;;;;;;;;0.00;0.00;;;;;;;;6335942;22;46332;-81
2023/03/19 13:18:14;;;;;;;;;2.50;0.00;;;;;;;;6335708;22;45635;-81
2023/03/19 13:20:57;;;;;;;;;2.00;1.00;;;;;;;;6335102;22;45165;-81
2023/03/19 13:23:25;;;;;;;;;0.25;0.00;;;;;;;;6336089;22;45313;-81
2023/03/19 13:25:52;;;;;;;;;0.00;0.00;;;;;;;;6333962;22;48146;-81
2023/03/19 13:28:32;;;;;;;;;2.00;1.00;;;;;;;;6335864;22;45334;-82
2023/03/19 13:31:02;;;;;;;;;0.00;0.00;;;;;;;;6335776;22;45323;-81
2023/03/19 13:33:27;;;;;;;;;0.00;0.00;;;;;;;;6335558;22;45568;-81
2023/03/19 13:35:54;;;;;;;;;0.75;0.75;;;;;;;;6335551;22;45925;-81
2023/03/19 13:38:30;;;;;;;;;0.00;0.00;;;;;;;;6335800;22;45513;-81
2023/03/19 13:40:56;;;;;;;;;0.75;0.00;;;;;;;;6334045;22;45302;-81
2023/03/19 13:43:21;;;;;;;;;1.00;1.00;;;;;;;;6335910;22;45310;-82
2023/03/19 13:45:51;;;;;;;;;2.67;1.00;;;;;;;;6335798;22;46250;-82
2023/03/19 13:48:25;;;;;;;;;4.00;0.00;;;;;;;;6334708;22;45288;-82
2023/03/19 13:50:58;;;;;;;;;1.25;0.00;;;;;;;;6335390;22;45241;-82
2023/03/19 13:53:34;;;;;;;;;0.25;0.25;;;;;;;;6334579;22;45603;-81
2023/03/19 13:56:08;;;;;;;;;1.50;1.00;;;;;;;;6336600;22;46677;-82
2023/03/19 13:58:56;;;;;;;;;1.00;1.00;;;;;;;;6333122;22;45314;-81
2023/03/19 14:01:24;;;;;;;;;0.00;0.00;;;;;;;;6336379;22;45327;-81
2023/03/19 14:03:55;;;;;;;;;0.00;0.00;;;;;;;;6337002;22;45731;-81
2023/03/19 14:06:35;;;;;;;;;4.50;1.25;;;;;;;;6336597;22;45500;-81
2023/03/19 14:09:01;;;;;;;;;3.00;1.00;;;;;;;;6336611;22;45476;-82
2023/03/19 14:11:32;;;;;;;;;1.00;0.25;;;;;;;;6336591;22;45214;-82
2023/03/19 14:14:00;;;;;;;;;0.00;0.00;;;;;;;;6335244;22;45601;-82
2023/03/19 14:16:29;;;;;;;;;1.00;0.00;;;;;;;;6336669;22;47003;-82
2023/03/19 14:18:56;;;;;;;;;2.00;0.00;;;;;;;;6336328;22;45208;-82
2023/03/19 14:21:30;;;;;;;;;0.75;0.75;;;;;;;;6336920;22;45303;-82
2023/03/19 14:24:15;;;;;;;;;0.00;0.00;;;;;;;;6336510;22;45419;-82
2023/03/19 14:26:42;;;;;;;;;0.75;0.00;;;;;;;;6336526;22;46204;-82
2023/03/19 14:29:12;;;;;;;;;0.00;0.00;;;;;;;;6335021;22;45822;-82
2023/03/19 14:31:47;;;;;;;;;0.25;0.00;;;;;;;;6336304;22;45318;-81
2023/03/19 14:34:15;;;;;;;;;1.50;0.00;;;;;;;;6334845;22;45468;-82
2023/03/19 14:36:44;;;;;;;;;0.25;0.25;;;;;;;;6336397;22;47116;-81
2023/03/19 14:39:26;;;;;;;;;0.75;0.00;;;;;;;;6337393;22;45603;-81
2023/03/19 14:41:59;;;;;;;;;0.00;0.00;;;;;;;;6335242;22;45327;-81
2023/03/19 14:44:33;;;;;;;;;3.00;0.00;;;;;;;;6337233;22;45291;-82
2023/03/19 14:47:00;;;;;;;;;1.75;1.00;;;;;;;;6335831;22;46288;-82